sensor_id;sensor_type;location;lat;lon;timestamp;P1;durP1;ratioP1;P2;durP2;ratioP2
12493;SDS011;8260;51.422;6.786;2022-10-23T00:00:52;9.13;;;3.80;;
12493;SDS011;8260;51.422;6.786;2022-10-23T00:03:20;9.25;;;3.55;;
12493;SDS011;8260;51.422;6.786;2022-10-23T00:05:49;7.90;;;3.33;;
12493;SDS011;8260;51.422;6.786;2022-10-23T00:08:19;7.78;;;3.53;;
12493;SDS011;8260;51.422;6.786;2022-10-23T00:10:47;7.53;;;3.50;;
12493;SDS011;8260;51.422;6.786;2022-10-23T00:13:17;4.50;;;3.13;;
12493;SDS011;8260;51.422;6.786;2022-10-23T00:15:46;7.38;;;3.40;;
12493;SDS011;8260;51.422;6.786;2022-10-23T00:18:14;6.63;;;3.22;;
12493;SDS011;8260;51.422;6.786;2022-10-23T00:20:43;7.85;;;3.70;;
12493;SDS011;8260;51.422;6.786;2022-10-23T00:23:11;7.15;;;3.78;;
12493;SDS011;8260;51.422;6.786;2022-10-23T00:25:39;5.82;;;3.03;;
12493;SDS011;8260;51.422;6.786;2022-10-23T00:28:08;6.07;;;3.40;;
12493;SDS011;8260;51.422;6.786;2022-10-23T00:30:38;6.88;;;3.20;;
12493;SDS011;8260;51.422;6.786;2022-10-23T00:33:07;5.15;;;2.83;;
12493;SDS011;8260;51.422;6.786;2022-10-23T00:35:37;7.07;;;3.15;;
12493;SDS011;8260;51.422;6.786;2022-10-23T00:38:06;4.93;;;3.28;;
12493;SDS011;8260;51.422;6.786;2022-10-23T00:40:35;6.88;;;3.38;;
12493;SDS011;8260;51.422;6.786;2022-10-23T00:43:04;7.90;;;3.80;;
12493;SDS011;8260;51.422;6.786;2022-10-23T00:45:34;8.15;;;2.90;;
12493;SDS011;8260;51.422;6.786;2022-10-23T00:48:04;5.05;;;3.00;;
12493;SDS011;8260;51.422;6.786;2022-10-23T00:50:32;9.07;;;3.33;;
12493;SDS011;8260;51.422;6.786;2022-10-23T00:53:01;8.93;;;3.47;;
12493;SDS011;8260;51.422;6.786;2022-10-23T00:55:30;6.82;;;3.28;;
12493;SDS011;8260;51.422;6.786;2022-10-23T00:57:59;5.28;;;2.83;;
12493;SDS011;8260;51.422;6.786;2022-10-23T01:00:29;7.45;;;3.33;;
12493;SDS011;8260;51.422;6.786;2022-10-23T01:02:58;6.88;;;3.42;;
12493;SDS011;8260;51.422;6.786;2022-10-23T01:05:29;5.80;;;3.30;;
12493;SDS011;8260;51.422;6.786;2022-10-23T01:08:00;5.75;;;3.65;;
12493;SDS011;8260;51.422;6.786;2022-10-23T01:10:30;9.77;;;3.70;;
12493;SDS011;8260;51.422;6.786;2022-10-23T01:13:04;4.05;;;2.80;;
12493;SDS011;8260;51.422;6.786;2022-10-23T01:15:34;5.93;;;3.35;;
12493;SDS011;8260;51.422;6.786;2022-10-23T01:18:05;10.43;;;3.65;;
12493;SDS011;8260;51.422;6.786;2022-10-23T01:20:38;4.38;;;3.13;;
12493;SDS011;8260;51.422;6.786;2022-10-23T01:23:22;6.72;;;3.40;;
12493;SDS011;8260;51.422;6.786;2022-10-23T01:26:00;8.52;;;3.58;;
12493;SDS011;8260;51.422;6.786;2022-10-23T01:28:32;8.40;;;3.55;;
12493;SDS011;8260;51.422;6.786;2022-10-23T01:31:01;11.55;;;3.70;;
12493;SDS011;8260;51.422;6.786;2022-10-23T01:33:32;8.10;;;3.72;;
12493;SDS011;8260;51.422;6.786;2022-10-23T01:36:03;6.53;;;3.25;;
12493;SDS011;8260;51.422;6.786;2022-10-23T01:38:34;5.60;;;3.97;;
12493;SDS011;8260;51.422;6.786;2022-10-23T01:41:06;6.13;;;3.60;;
12493;SDS011;8260;51.422;6.786;2022-10-23T01:43:39;11.55;;;3.60;;
12493;SDS011;8260;51.422;6.786;2022-10-23T01:46:09;8.27;;;3.40;;
12493;SDS011;8260;51.422;6.786;2022-10-23T01:48:40;7.65;;;3.35;;
12493;SDS011;8260;51.422;6.786;2022-10-23T01:51:10;6.15;;;3.45;;
12493;SDS011;8260;51.422;6.786;2022-10-23T01:53:41;7.22;;;3.50;;
12493;SDS011;8260;51.422;6.786;2022-10-23T01:56:11;5.00;;;3.20;;
12493;SDS011;8260;51.422;6.786;2022-10-23T01:58:41;5.60;;;3.22;;
12493;SDS011;8260;51.422;6.786;2022-10-23T02:01:11;6.15;;;3.22;;
12493;SDS011;8260;51.422;6.786;2022-10-23T02:03:40;8.32;;;3.38;;
12493;SDS011;8260;51.422;6.786;2022-10-23T02:06:10;8.27;;;3.30;;
12493;SDS011;8260;51.422;6.786;2022-10-23T02:08:39;7.68;;;3.38;;
12493;SDS011;8260;51.422;6.786;2022-10-23T02:11:08;9.00;;;3.42;;
12493;SDS011;8260;51.422;6.786;2022-10-23T02:13:38;7.25;;;2.80;;
12493;SDS011;8260;51.422;6.786;2022-10-23T02:16:10;7.00;;;3.55;;
12493;SDS011;8260;51.422;6.786;2022-10-23T02:18:43;8.57;;;3.58;;
12493;SDS011;8260;51.422;6.786;2022-10-23T02:21:14;9.32;;;3.55;;
12493;SDS011;8260;51.422;6.786;2022-10-23T02:23:45;6.63;;;3.33;;
12493;SDS011;8260;51.422;6.786;2022-10-23T02:26:22;7.45;;;4.28;;
12493;SDS011;8260;51.422;6.786;2022-10-23T02:28:53;8.65;;;3.60;;
12493;SDS011;8260;51.422;6.786;2022-10-23T02:31:24;3.88;;;2.80;;
12493;SDS011;8260;51.422;6.786;2022-10-23T02:33:53;8.25;;;3.75;;
12493;SDS011;8260;51.422;6.786;2022-10-23T02:36:21;10.77;;;3.45;;
12493;SDS011;8260;51.422;6.786;2022-10-23T02:38:50;4.20;;;3.05;;
12493;SDS011;8260;51.422;6.786;2022-10-23T02:41:23;7.38;;;3.90;;
12493;SDS011;8260;51.422;6.786;2022-10-23T02:43:55;9.63;;;3.50;;
12493;SDS011;8260;51.422;6.786;2022-10-23T02:46:28;6.82;;;3.50;;
12493;SDS011;8260;51.422;6.786;2022-10-23T02:48:59;8.48;;;3.30;;
12493;SDS011;8260;51.422;6.786;2022-10-23T02:51:32;8.88;;;3.53;;
12493;SDS011;8260;51.422;6.786;2022-10-23T02:54:03;7.88;;;3.30;;
12493;SDS011;8260;51.422;6.786;2022-10-23T02:56:35;4.90;;;3.50;;
12493;SDS011;8260;51.422;6.786;2022-10-23T02:59:06;5.95;;;3.60;;
12493;SDS011;8260;51.422;6.786;2022-10-23T03:01:40;3.85;;;2.90;;
12493;SDS011;8260;51.422;6.786;2022-10-23T03:04:10;4.93;;;2.75;;
12493;SDS011;8260;51.422;6.786;2022-10-23T03:06:39;7.50;;;3.38;;
12493;SDS011;8260;51.422;6.786;2022-10-23T03:09:07;4.15;;;2.80;;
12493;SDS011;8260;51.422;6.786;2022-10-23T03:11:36;7.75;;;3.30;;
12493;SDS011;8260;51.422;6.786;2022-10-23T03:14:04;5.25;;;3.22;;
12493;SDS011;8260;51.422;6.786;2022-10-23T03:16:33;5.18;;;3.08;;
12493;SDS011;8260;51.422;6.786;2022-10-23T03:19:03;4.95;;;3.08;;
12493;SDS011;8260;51.422;6.786;2022-10-23T03:21:31;9.23;;;3.50;;
12493;SDS011;8260;51.422;6.786;2022-10-23T03:23:59;5.93;;;2.92;;
12493;SDS011;8260;51.422;6.786;2022-10-23T03:26:28;7.47;;;3.15;;
12493;SDS011;8260;51.422;6.786;2022-10-23T03:28:56;4.30;;;2.60;;
12493;SDS011;8260;51.422;6.786;2022-10-23T03:31:25;5.68;;;3.00;;
12493;SDS011;8260;51.422;6.786;2022-10-23T03:33:53;4.63;;;3.00;;
12493;SDS011;8260;51.422;6.786;2022-10-23T03:36:23;3.38;;;2.95;;
12493;SDS011;8260;51.422;6.786;2022-10-23T03:38:52;8.75;;;3.20;;
12493;SDS011;8260;51.422;6.786;2022-10-23T03:41:21;6.47;;;3.10;;
12493;SDS011;8260;51.422;6.786;2022-10-23T03:43:50;7.53;;;3.42;;
12493;SDS011;8260;51.422;6.786;2022-10-23T03:46:18;7.22;;;3.03;;
12493;SDS011;8260;51.422;6.786;2022-10-23T03:48:46;7.35;;;3.25;;
12493;SDS011;8260;51.422;6.786;2022-10-23T03:51:17;4.13;;;2.90;;
12493;SDS011;8260;51.422;6.786;2022-10-23T03:53:47;5.80;;;3.08;;
12493;SDS011;8260;51.422;6.786;2022-10-23T03:56:15;6.53;;;3.25;;
12493;SDS011;8260;51.422;6.786;2022-10-23T03:58:44;4.38;;;3.10;;
12493;SDS011;8260;51.422;6.786;2022-10-23T04:01:13;5.88;;;2.90;;
12493;SDS011;8260;51.422;6.786;2022-10-23T04:03:41;7.38;;;3.72;;
12493;SDS011;8260;51.422;6.786;2022-10-23T04:06:09;5.15;;;3.15;;
12493;SDS011;8260;51.422;6.786;2022-10-23T04:08:38;4.68;;;2.90;;
12493;SDS011;8260;51.422;6.786;2022-10-23T04:11:08;4.32;;;3.00;;
12493;SDS011;8260;51.422;6.786;2022-10-23T04:13:36;3.33;;;2.60;;
12493;SDS011;8260;51.422;6.786;2022-10-23T04:16:05;5.32;;;2.80;;
12493;SDS011;8260;51.422;6.786;2022-10-23T04:18:33;5.70;;;3.30;;
12493;SDS011;8260;51.422;6.786;2022-10-23T04:21:01;6.07;;;3.25;;
12493;SDS011;8260;51.422;6.786;2022-10-23T04:23:30;5.60;;;3.15;;
12493;SDS011;8260;51.422;6.786;2022-10-23T04:25:58;6.97;;;3.10;;
12493;SDS011;8260;51.422;6.786;2022-10-23T04:28:28;6.85;;;3.03;;
12493;SDS011;8260;51.422;6.786;2022-10-23T04:30:56;5.22;;;2.80;;
12493;SDS011;8260;51.422;6.786;2022-10-23T04:33:25;5.32;;;2.70;;
12493;SDS011;8260;51.422;6.786;2022-10-23T04:35:54;5.63;;;2.75;;
12493;SDS011;8260;51.422;6.786;2022-10-23T04:38:22;5.35;;;3.40;;
12493;SDS011;8260;51.422;6.786;2022-10-23T04:40:51;5.57;;;2.65;;
12493;SDS011;8260;51.422;6.786;2022-10-23T04:43:19;4.35;;;2.75;;
12493;SDS011;8260;51.422;6.786;2022-10-23T04:45:49;5.50;;;2.90;;
12493;SDS011;8260;51.422;6.786;2022-10-23T04:48:18;5.72;;;3.85;;
12493;SDS011;8260;51.422;6.786;2022-10-23T04:50:55;6.18;;;3.08;;
12493;SDS011;8260;51.422;6.786;2022-10-23T04:53:23;5.70;;;3.08;;
12493;SDS011;8260;51.422;6.786;2022-10-23T04:55:53;6.10;;;3.28;;
12493;SDS011;8260;51.422;6.786;2022-10-23T04:58:21;4.13;;;2.53;;
12493;SDS011;8260;51.422;6.786;2022-10-23T05:00:52;6.65;;;3.15;;
12493;SDS011;8260;51.422;6.786;2022-10-23T05:03:20;7.47;;;3.17;;
12493;SDS011;8260;51.422;6.786;2022-10-23T05:05:51;7.40;;;2.67;;
12493;SDS011;8260;51.422;6.786;2022-10-23T05:08:20;6.90;;;2.92;;
12493;SDS011;8260;51.422;6.786;2022-10-23T05:10:48;4.68;;;3.30;;
12493;SDS011;8260;51.422;6.786;2022-10-23T05:13:17;4.13;;;2.80;;
12493;SDS011;8260;51.422;6.786;2022-10-23T05:15:46;5.93;;;3.05;;
12493;SDS011;8260;51.422;6.786;2022-10-23T05:18:16;7.32;;;2.80;;
12493;SDS011;8260;51.422;6.786;2022-10-23T05:20:45;5.20;;;2.85;;
12493;SDS011;8260;51.422;6.786;2022-10-23T05:23:15;4.88;;;2.78;;
12493;SDS011;8260;51.422;6.786;2022-10-23T05:25:45;5.22;;;2.90;;
12493;SDS011;8260;51.422;6.786;2022-10-23T05:28:14;6.80;;;2.85;;
12493;SDS011;8260;51.422;6.786;2022-10-23T05:30:42;5.88;;;3.10;;
12493;SDS011;8260;51.422;6.786;2022-10-23T05:33:11;5.20;;;2.80;;
12493;SDS011;8260;51.422;6.786;2022-10-23T05:35:41;5.75;;;2.85;;
12493;SDS011;8260;51.422;6.786;2022-10-23T05:38:09;6.43;;;2.75;;
12493;SDS011;8260;51.422;6.786;2022-10-23T05:40:38;6.85;;;2.80;;
12493;SDS011;8260;51.422;6.786;2022-10-23T05:43:07;5.60;;;3.10;;
12493;SDS011;8260;51.422;6.786;2022-10-23T05:45:35;7.75;;;3.10;;
12493;SDS011;8260;51.422;6.786;2022-10-23T05:48:04;4.82;;;2.63;;
12493;SDS011;8260;51.422;6.786;2022-10-23T05:50:48;5.82;;;2.80;;
12493;SDS011;8260;51.422;6.786;2022-10-23T05:53:17;5.22;;;3.13;;
12493;SDS011;8260;51.422;6.786;2022-10-23T05:55:45;5.00;;;2.53;;
12493;SDS011;8260;51.422;6.786;2022-10-23T05:58:14;7.80;;;3.00;;
12493;SDS011;8260;51.422;6.786;2022-10-23T06:00:42;6.78;;;3.10;;
12493;SDS011;8260;51.422;6.786;2022-10-23T06:03:11;4.65;;;2.60;;
12493;SDS011;8260;51.422;6.786;2022-10-23T06:05:39;5.43;;;2.70;;
12493;SDS011;8260;51.422;6.786;2022-10-23T06:08:09;4.20;;;2.97;;
12493;SDS011;8260;51.422;6.786;2022-10-23T06:10:37;4.57;;;2.75;;
12493;SDS011;8260;51.422;6.786;2022-10-23T06:13:06;4.43;;;2.40;;
12493;SDS011;8260;51.422;6.786;2022-10-23T06:15:34;3.85;;;2.60;;
12493;SDS011;8260;51.422;6.786;2022-10-23T06:18:03;6.65;;;2.97;;
12493;SDS011;8260;51.422;6.786;2022-10-23T06:20:33;4.18;;;3.03;;
12493;SDS011;8260;51.422;6.786;2022-10-23T06:23:02;4.40;;;2.53;;
12493;SDS011;8260;51.422;6.786;2022-10-23T06:25:32;5.68;;;2.50;;
12493;SDS011;8260;51.422;6.786;2022-10-23T06:28:00;5.43;;;3.53;;
12493;SDS011;8260;51.422;6.786;2022-10-23T06:30:29;5.20;;;2.60;;
12493;SDS011;8260;51.422;6.786;2022-10-23T06:32:57;4.00;;;2.55;;
12493;SDS011;8260;51.422;6.786;2022-10-23T06:35:31;5.55;;;3.00;;
12493;SDS011;8260;51.422;6.786;2022-10-23T06:37:59;5.97;;;2.75;;
12493;SDS011;8260;51.422;6.786;2022-10-23T06:40:28;3.80;;;2.50;;
12493;SDS011;8260;51.422;6.786;2022-10-23T06:42:57;6.75;;;3.03;;
12493;SDS011;8260;51.422;6.786;2022-10-23T06:45:26;4.43;;;2.40;;
12493;SDS011;8260;51.422;6.786;2022-10-23T06:47:55;6.50;;;2.63;;
12493;SDS011;8260;51.422;6.786;2022-10-23T06:50:23;4.22;;;2.70;;
12493;SDS011;8260;51.422;6.786;2022-10-23T06:52:52;6.53;;;2.75;;
12493;SDS011;8260;51.422;6.786;2022-10-23T06:55:20;4.45;;;2.47;;
12493;SDS011;8260;51.422;6.786;2022-10-23T06:57:49;4.47;;;2.47;;
12493;SDS011;8260;51.422;6.786;2022-10-23T07:00:19;5.03;;;2.40;;
12493;SDS011;8260;51.422;6.786;2022-10-23T07:02:47;7.72;;;2.83;;
12493;SDS011;8260;51.422;6.786;2022-10-23T07:05:16;4.90;;;2.40;;
12493;SDS011;8260;51.422;6.786;2022-10-23T07:07:44;5.72;;;2.63;;
12493;SDS011;8260;51.422;6.786;2022-10-23T07:10:13;5.60;;;2.53;;
12493;SDS011;8260;51.422;6.786;2022-10-23T07:12:41;3.58;;;2.60;;
12493;SDS011;8260;51.422;6.786;2022-10-23T07:15:10;3.30;;;2.70;;
12493;SDS011;8260;51.422;6.786;2022-10-23T07:17:40;7.03;;;2.42;;
12493;SDS011;8260;51.422;6.786;2022-10-23T07:20:09;4.40;;;2.97;;
12493;SDS011;8260;51.422;6.786;2022-10-23T07:22:37;5.22;;;2.47;;
12493;SDS011;8260;51.422;6.786;2022-10-23T07:25:06;4.40;;;2.72;;
12493;SDS011;8260;51.422;6.786;2022-10-23T07:27:35;3.40;;;2.67;;
12493;SDS011;8260;51.422;6.786;2022-10-23T07:30:04;7.07;;;3.10;;
12493;SDS011;8260;51.422;6.786;2022-10-23T07:32:33;6.22;;;2.85;;
12493;SDS011;8260;51.422;6.786;2022-10-23T07:35:03;7.47;;;2.83;;
12493;SDS011;8260;51.422;6.786;2022-10-23T07:37:32;4.28;;;2.83;;
12493;SDS011;8260;51.422;6.786;2022-10-23T07:40:00;4.35;;;3.00;;
12493;SDS011;8260;51.422;6.786;2022-10-23T07:42:28;4.60;;;2.70;;
12493;SDS011;8260;51.422;6.786;2022-10-23T07:44:57;2.70;;;2.50;;
12493;SDS011;8260;51.422;6.786;2022-10-23T07:47:25;3.83;;;2.70;;
12493;SDS011;8260;51.422;6.786;2022-10-23T07:49:54;3.58;;;2.50;;
12493;SDS011;8260;51.422;6.786;2022-10-23T07:52:24;4.60;;;2.67;;
12493;SDS011;8260;51.422;6.786;2022-10-23T07:54:58;6.50;;;2.50;;
12493;SDS011;8260;51.422;6.786;2022-10-23T07:57:27;6.18;;;2.20;;
12493;SDS011;8260;51.422;6.786;2022-10-23T07:59:57;2.83;;;2.08;;
12493;SDS011;8260;51.422;6.786;2022-10-23T08:02:25;5.32;;;2.55;;
12493;SDS011;8260;51.422;6.786;2022-10-23T08:04:53;4.78;;;2.40;;
12493;SDS011;8260;51.422;6.786;2022-10-23T08:07:23;3.25;;;2.30;;
12493;SDS011;8260;51.422;6.786;2022-10-23T08:09:52;6.03;;;2.30;;
12493;SDS011;8260;51.422;6.786;2022-10-23T08:12:20;2.60;;;1.98;;
12493;SDS011;8260;51.422;6.786;2022-10-23T08:14:49;3.80;;;2.10;;
12493;SDS011;8260;51.422;6.786;2022-10-23T08:17:17;3.90;;;2.20;;
12493;SDS011;8260;51.422;6.786;2022-10-23T08:19:48;4.18;;;2.05;;
12493;SDS011;8260;51.422;6.786;2022-10-23T08:22:16;2.65;;;2.00;;
12493;SDS011;8260;51.422;6.786;2022-10-23T08:24:46;6.30;;;2.38;;
12493;SDS011;8260;51.422;6.786;2022-10-23T08:27:14;4.72;;;1.42;;
12493;SDS011;8260;51.422;6.786;2022-10-23T08:29:43;4.75;;;1.83;;
12493;SDS011;8260;51.422;6.786;2022-10-23T08:32:11;5.93;;;2.10;;
12493;SDS011;8260;51.422;6.786;2022-10-23T08:34:40;5.28;;;2.17;;
12493;SDS011;8260;51.422;6.786;2022-10-23T08:37:08;4.43;;;1.85;;
12493;SDS011;8260;51.422;6.786;2022-10-23T08:39:37;3.33;;;1.98;;
12493;SDS011;8260;51.422;6.786;2022-10-23T08:42:14;3.08;;;2.00;;
12493;SDS011;8260;51.422;6.786;2022-10-23T08:44:45;5.70;;;1.90;;
12493;SDS011;8260;51.422;6.786;2022-10-23T08:47:16;4.68;;;1.88;;
12493;SDS011;8260;51.422;6.786;2022-10-23T08:49:46;4.80;;;1.95;;
12493;SDS011;8260;51.422;6.786;2022-10-23T08:52:19;3.05;;;1.73;;
12493;SDS011;8260;51.422;6.786;2022-10-23T08:54:52;6.13;;;1.98;;
12493;SDS011;8260;51.422;6.786;2022-10-23T08:57:24;4.93;;;1.80;;
12493;SDS011;8260;51.422;6.786;2022-10-23T08:59:59;4.70;;;1.90;;
12493;SDS011;8260;51.422;6.786;2022-10-23T09:02:28;4.97;;;2.00;;
12493;SDS011;8260;51.422;6.786;2022-10-23T09:04:57;3.60;;;1.80;;
12493;SDS011;8260;51.422;6.786;2022-10-23T09:07:30;4.72;;;1.80;;
12493;SDS011;8260;51.422;6.786;2022-10-23T09:10:04;3.58;;;2.38;;
12493;SDS011;8260;51.422;6.786;2022-10-23T09:12:39;4.32;;;1.85;;
12493;SDS011;8260;51.422;6.786;2022-10-23T09:15:17;3.75;;;1.90;;
12493;SDS011;8260;51.422;6.786;2022-10-23T09:17:47;3.25;;;1.80;;
12493;SDS011;8260;51.422;6.786;2022-10-23T09:20:21;2.95;;;1.60;;
12493;SDS011;8260;51.422;6.786;2022-10-23T09:22:52;2.85;;;1.80;;
12493;SDS011;8260;51.422;6.786;2022-10-23T09:25:21;2.55;;;1.80;;
12493;SDS011;8260;51.422;6.786;2022-10-23T09:27:53;5.35;;;1.80;;
12493;SDS011;8260;51.422;6.786;2022-10-23T09:30:29;5.32;;;1.67;;
12493;SDS011;8260;51.422;6.786;2022-10-23T09:32:58;7.80;;;2.33;;
12493;SDS011;8260;51.422;6.786;2022-10-23T09:35:27;7.70;;;2.20;;
12493;SDS011;8260;51.422;6.786;2022-10-23T09:37:56;2.50;;;1.70;;
12493;SDS011;8260;51.422;6.786;2022-10-23T09:40:27;4.22;;;1.92;;
12493;SDS011;8260;51.422;6.786;2022-10-23T09:43:10;4.65;;;1.80;;
12493;SDS011;8260;51.422;6.786;2022-10-23T09:45:40;3.67;;;1.58;;
12493;SDS011;8260;51.422;6.786;2022-10-23T09:48:16;2.97;;;2.00;;
12493;SDS011;8260;51.422;6.786;2022-10-23T09:50:46;8.38;;;1.63;;
12493;SDS011;8260;51.422;6.786;2022-10-23T09:53:22;2.85;;;1.88;;
12493;SDS011;8260;51.422;6.786;2022-10-23T09:55:52;2.22;;;1.58;;
12493;SDS011;8260;51.422;6.786;2022-10-23T09:58:26;3.88;;;1.80;;
12493;SDS011;8260;51.422;6.786;2022-10-23T10:00:55;3.47;;;1.80;;
12493;SDS011;8260;51.422;6.786;2022-10-23T10:03:24;3.88;;;2.20;;
12493;SDS011;8260;51.422;6.786;2022-10-23T10:05:53;3.45;;;1.67;;
12493;SDS011;8260;51.422;6.786;2022-10-23T10:08:24;2.45;;;1.50;;
12493;SDS011;8260;51.422;6.786;2022-10-23T10:10:54;2.30;;;1.42;;
12493;SDS011;8260;51.422;6.786;2022-10-23T10:13:31;5.22;;;1.67;;
12493;SDS011;8260;51.422;6.786;2022-10-23T10:16:05;3.85;;;1.95;;
12493;SDS011;8260;51.422;6.786;2022-10-23T10:18:35;3.42;;;1.60;;
12493;SDS011;8260;51.422;6.786;2022-10-23T10:21:09;3.13;;;1.65;;
12493;SDS011;8260;51.422;6.786;2022-10-23T10:23:42;3.95;;;1.70;;
12493;SDS011;8260;51.422;6.786;2022-10-23T10:26:16;3.65;;;1.63;;
12493;SDS011;8260;51.422;6.786;2022-10-23T10:28:57;5.65;;;1.83;;
12493;SDS011;8260;51.422;6.786;2022-10-23T10:31:31;3.53;;;1.90;;
12493;SDS011;8260;51.422;6.786;2022-10-23T10:34:05;4.55;;;2.00;;
12493;SDS011;8260;51.422;6.786;2022-10-23T10:36:38;3.97;;;1.90;;
12493;SDS011;8260;51.422;6.786;2022-10-23T10:39:10;2.92;;;1.70;;
12493;SDS011;8260;51.422;6.786;2022-10-23T10:41:43;7.00;;;2.00;;
12493;SDS011;8260;51.422;6.786;2022-10-23T10:44:21;6.35;;;1.60;;
12493;SDS011;8260;51.422;6.786;2022-10-23T10:46:53;4.13;;;1.70;;
12493;SDS011;8260;51.422;6.786;2022-10-23T10:49:25;3.67;;;2.00;;
12493;SDS011;8260;51.422;6.786;2022-10-23T10:51:58;3.92;;;2.10;;
12493;SDS011;8260;51.422;6.786;2022-10-23T10:54:32;3.95;;;1.95;;
12493;SDS011;8260;51.422;6.786;2022-10-23T10:57:03;6.22;;;1.88;;
12493;SDS011;8260;51.422;6.786;2022-10-23T10:59:36;4.47;;;1.80;;
12493;SDS011;8260;51.422;6.786;2022-10-23T11:02:12;4.97;;;1.83;;
12493;SDS011;8260;51.422;6.786;2022-10-23T11:04:46;3.80;;;1.40;;
12493;SDS011;8260;51.422;6.786;2022-10-23T11:07:18;4.68;;;1.77;;
12493;SDS011;8260;51.422;6.786;2022-10-23T11:09:48;4.00;;;1.50;;
12493;SDS011;8260;51.422;6.786;2022-10-23T11:12:17;5.40;;;1.70;;
12493;SDS011;8260;51.422;6.786;2022-10-23T11:14:48;5.55;;;1.80;;
12493;SDS011;8260;51.422;6.786;2022-10-23T11:17:18;4.32;;;1.90;;
12493;SDS011;8260;51.422;6.786;2022-10-23T11:19:51;3.28;;;1.77;;
12493;SDS011;8260;51.422;6.786;2022-10-23T11:22:23;3.35;;;1.67;;
12493;SDS011;8260;51.422;6.786;2022-10-23T11:25:00;4.85;;;2.08;;
12493;SDS011;8260;51.422;6.786;2022-10-23T11:30:21;1.98;;;1.77;;
12493;SDS011;8260;51.422;6.786;2022-10-23T11:32:56;4.88;;;1.70;;
12493;SDS011;8260;51.422;6.786;2022-10-23T11:38:16;2.25;;;1.60;;
12493;SDS011;8260;51.422;6.786;2022-10-23T11:40:45;3.63;;;1.63;;
12493;SDS011;8260;51.422;6.786;2022-10-23T11:43:29;5.65;;;1.90;;
12493;SDS011;8260;51.422;6.786;2022-10-23T11:46:09;4.70;;;1.88;;
12493;SDS011;8260;51.422;6.786;2022-10-23T11:48:39;4.20;;;1.80;;
12493;SDS011;8260;51.422;6.786;2022-10-23T11:53:51;5.05;;;1.90;;
12493;SDS011;8260;51.422;6.786;2022-10-23T11:56:22;3.58;;;1.75;;
12493;SDS011;8260;51.422;6.786;2022-10-23T11:58:52;1.92;;;1.50;;
12493;SDS011;8260;51.422;6.786;2022-10-23T12:01:25;2.20;;;1.48;;
12493;SDS011;8260;51.422;6.786;2022-10-23T12:03:56;4.25;;;1.65;;
12493;SDS011;8260;51.422;6.786;2022-10-23T12:06:26;4.70;;;1.77;;
12493;SDS011;8260;51.422;6.786;2022-10-23T12:08:57;2.83;;;1.88;;
12493;SDS011;8260;51.422;6.786;2022-10-23T12:11:28;9.38;;;1.77;;
12493;SDS011;8260;51.422;6.786;2022-10-23T12:13:56;4.60;;;1.90;;
12493;SDS011;8260;51.422;6.786;2022-10-23T12:16:34;6.93;;;1.73;;
12493;SDS011;8260;51.422;6.786;2022-10-23T12:19:11;3.45;;;1.83;;
12493;SDS011;8260;51.422;6.786;2022-10-23T12:21:44;5.40;;;1.80;;
12493;SDS011;8260;51.422;6.786;2022-10-23T12:24:16;6.40;;;2.10;;
12493;SDS011;8260;51.422;6.786;2022-10-23T12:26:54;6.00;;;1.90;;
12493;SDS011;8260;51.422;6.786;2022-10-23T12:29:29;3.25;;;1.88;;
12493;SDS011;8260;51.422;6.786;2022-10-23T12:32:04;4.93;;;1.80;;
12493;SDS011;8260;51.422;6.786;2022-10-23T12:34:37;5.00;;;1.83;;
12493;SDS011;8260;51.422;6.786;2022-10-23T12:37:17;5.65;;;1.80;;
12493;SDS011;8260;51.422;6.786;2022-10-23T12:39:50;5.55;;;1.73;;
12493;SDS011;8260;51.422;6.786;2022-10-23T12:42:20;3.83;;;1.85;;
12493;SDS011;8260;51.422;6.786;2022-10-23T12:44:56;4.05;;;1.80;;
12493;SDS011;8260;51.422;6.786;2022-10-23T12:47:26;7.38;;;1.92;;
12493;SDS011;8260;51.422;6.786;2022-10-23T12:49:55;5.60;;;2.08;;
12493;SDS011;8260;51.422;6.786;2022-10-23T12:52:24;1.98;;;1.77;;
12493;SDS011;8260;51.422;6.786;2022-10-23T12:54:52;3.70;;;1.95;;
12493;SDS011;8260;51.422;6.786;2022-10-23T12:57:22;2.55;;;1.90;;
12493;SDS011;8260;51.422;6.786;2022-10-23T12:59:52;5.32;;;1.73;;
12493;SDS011;8260;51.422;6.786;2022-10-23T13:02:23;5.22;;;1.95;;
12493;SDS011;8260;51.422;6.786;2022-10-23T13:04:54;3.95;;;1.83;;
12493;SDS011;8260;51.422;6.786;2022-10-23T13:07:27;5.20;;;2.25;;
12493;SDS011;8260;51.422;6.786;2022-10-23T13:09:56;2.65;;;2.00;;
12493;SDS011;8260;51.422;6.786;2022-10-23T13:12:26;9.43;;;2.10;;
12493;SDS011;8260;51.422;6.786;2022-10-23T13:14:58;4.75;;;2.33;;
12493;SDS011;8260;51.422;6.786;2022-10-23T13:17:32;3.92;;;1.95;;
12493;SDS011;8260;51.422;6.786;2022-10-23T13:20:10;3.53;;;2.00;;
12493;SDS011;8260;51.422;6.786;2022-10-23T13:22:38;4.35;;;2.20;;
12493;SDS011;8260;51.422;6.786;2022-10-23T13:25:21;4.22;;;2.05;;
12493;SDS011;8260;51.422;6.786;2022-10-23T13:27:49;4.45;;;2.40;;
12493;SDS011;8260;51.422;6.786;2022-10-23T13:30:28;4.97;;;2.00;;
12493;SDS011;8260;51.422;6.786;2022-10-23T13:32:56;3.95;;;1.73;;
12493;SDS011;8260;51.422;6.786;2022-10-23T13:35:27;7.82;;;2.22;;
12493;SDS011;8260;51.422;6.786;2022-10-23T13:37:55;6.85;;;2.38;;
12493;SDS011;8260;51.422;6.786;2022-10-23T13:40:34;4.13;;;1.98;;
12493;SDS011;8260;51.422;6.786;2022-10-23T13:43:04;3.38;;;2.50;;
12493;SDS011;8260;51.422;6.786;2022-10-23T13:45:40;6.30;;;2.50;;
12493;SDS011;8260;51.422;6.786;2022-10-23T13:48:09;3.83;;;2.35;;
12493;SDS011;8260;51.422;6.786;2022-10-23T13:50:42;4.75;;;2.05;;
12493;SDS011;8260;51.422;6.786;2022-10-23T13:53:11;4.68;;;1.95;;
12493;SDS011;8260;51.422;6.786;2022-10-23T13:55:41;3.55;;;2.08;;
12493;SDS011;8260;51.422;6.786;2022-10-23T13:58:10;3.60;;;2.03;;
12493;SDS011;8260;51.422;6.786;2022-10-23T14:00:38;3.25;;;2.10;;
12493;SDS011;8260;51.422;6.786;2022-10-23T14:03:08;4.90;;;2.50;;
12493;SDS011;8260;51.422;6.786;2022-10-23T14:05:37;3.40;;;2.42;;
12493;SDS011;8260;51.422;6.786;2022-10-23T14:08:07;6.18;;;2.78;;
12493;SDS011;8260;51.422;6.786;2022-10-23T14:10:35;5.13;;;2.33;;
12493;SDS011;8260;51.422;6.786;2022-10-23T14:13:04;5.75;;;2.30;;
12493;SDS011;8260;51.422;6.786;2022-10-23T14:15:32;4.60;;;2.38;;
12493;SDS011;8260;51.422;6.786;2022-10-23T14:18:01;4.97;;;2.60;;
12493;SDS011;8260;51.422;6.786;2022-10-23T14:20:33;3.42;;;2.22;;
12493;SDS011;8260;51.422;6.786;2022-10-23T14:23:02;4.38;;;2.63;;
12493;SDS011;8260;51.422;6.786;2022-10-23T14:25:31;3.78;;;2.45;;
12493;SDS011;8260;51.422;6.786;2022-10-23T14:28:00;6.18;;;2.28;;
12493;SDS011;8260;51.422;6.786;2022-10-23T14:30:28;5.13;;;2.10;;
12493;SDS011;8260;51.422;6.786;2022-10-23T14:32:57;6.20;;;2.70;;
12493;SDS011;8260;51.422;6.786;2022-10-23T14:35:25;4.80;;;2.40;;
12493;SDS011;8260;51.422;6.786;2022-10-23T14:37:54;7.10;;;2.83;;
12493;SDS011;8260;51.422;6.786;2022-10-23T14:40:23;5.30;;;2.60;;
12493;SDS011;8260;51.422;6.786;2022-10-23T14:42:53;4.90;;;2.33;;
12493;SDS011;8260;51.422;6.786;2022-10-23T14:45:22;3.25;;;2.33;;
12493;SDS011;8260;51.422;6.786;2022-10-23T14:47:51;5.85;;;2.33;;
12493;SDS011;8260;51.422;6.786;2022-10-23T14:50:19;7.28;;;2.78;;
12493;SDS011;8260;51.422;6.786;2022-10-23T14:52:48;5.75;;;2.75;;
12493;SDS011;8260;51.422;6.786;2022-10-23T14:55:16;2.78;;;2.25;;
12493;SDS011;8260;51.422;6.786;2022-10-23T14:57:45;6.90;;;2.50;;
12493;SDS011;8260;51.422;6.786;2022-10-23T15:00:15;4.30;;;2.65;;
12493;SDS011;8260;51.422;6.786;2022-10-23T15:02:43;7.53;;;2.70;;
12493;SDS011;8260;51.422;6.786;2022-10-23T15:05:12;2.97;;;2.10;;
12493;SDS011;8260;51.422;6.786;2022-10-23T15:07:40;3.35;;;2.17;;
12493;SDS011;8260;51.422;6.786;2022-10-23T15:10:09;8.55;;;3.15;;
12493;SDS011;8260;51.422;6.786;2022-10-23T15:12:38;6.93;;;2.58;;
12493;SDS011;8260;51.422;6.786;2022-10-23T15:15:07;5.40;;;2.30;;
12493;SDS011;8260;51.422;6.786;2022-10-23T15:17:37;5.90;;;2.83;;
12493;SDS011;8260;51.422;6.786;2022-10-23T15:20:06;6.28;;;2.85;;
12493;SDS011;8260;51.422;6.786;2022-10-23T15:22:35;3.67;;;2.60;;
12493;SDS011;8260;51.422;6.786;2022-10-23T15:25:09;4.05;;;2.65;;
12493;SDS011;8260;51.422;6.786;2022-10-23T15:27:43;5.43;;;2.60;;